Terminal Aerodrome Forecast
Issued by NWS

Home | Current Version | Previous Version | Text Only | Print | Product List | Glossary On
Versions: 1 2 3 4 5 6 7 8 9 10 11 12 13 14 15 16 17 18
000
FTUS46 KLOX 010100 AAA
TAFLGB
TAF AMD
KLGB 010105Z 0101/0124 25011KT P6SM SCT035 BKN040
     FM010300 28007KT P6SM -SHRA SCT025 OVC040
     FM010700 VRB06KT P6SM -SHRA SCT025 OVC035
     FM011100 VRB03KT P6SM -SHRA VCTS SCT025CB BKN035 PROB30
      0111/0115 22020KT -TSRA OVC030CB
     FM011500 VRB03KT P6SM -SHRA SCT025 BKN040
     FM012100 16007KT P6SM -SHRA SCT025 BKN045=

USA.gov is the U.S. government's official web portal to all federal, state and local government web resources and services.